Time;durP1;ratioP1;P1;durP2;ratioP2;P2;SDS_P1;SDS_P2;PMS_P1;PMS_P2;Temp;Humidity;BMP_temperature;BMP_pressure;BME280_temperature;BME280_humidity;BME280_pressure;Samples;Min_cycle;Max_cycle;Signal;HPM_P1;HPM_P2
2022/12/16 00:01:22;;;;;;;47.25;36.38;;;-0.40;99.90;;;;;;7378359;19;20018;-49
2022/12/16 00:03:51;;;;;;;47.60;36.63;;;-0.40;99.90;;;;;;7372105;19;20022;-47
2022/12/16 00:06:18;;;;;;;47.13;38.28;;;-0.30;99.90;;;;;;7377935;19;20018;-49
2022/12/16 00:08:45;;;;;;;43.30;33.33;;;-0.40;99.90;;;;;;7381393;19;20018;-50
2022/12/16 00:11:12;;;;;;;48.85;37.03;;;-0.30;99.90;;;;;;7384060;19;20046;-54
2022/12/16 00:13:39;;;;;;;48.50;37.13;;;-0.30;99.90;;;;;;7376837;19;20082;-49
2022/12/16 00:16:17;;;;;;;45.75;33.58;;;-0.30;99.90;;;;;;7379970;19;20017;-47
2022/12/16 00:18:44;;;;;;;46.72;36.90;;;-0.30;99.90;;;;;;7379742;19;20042;-46
2022/12/16 00:21:11;;;;;;;51.22;35.65;;;-0.30;99.90;;;;;;7376125;19;20020;-49
2022/12/16 00:23:38;;;;;;;46.90;36.10;;;-0.30;99.90;;;;;;7379217;19;20363;-47
2022/12/16 00:26:05;;;;;;;44.20;35.55;;;-0.20;99.90;;;;;;7380802;19;20343;-47
2022/12/16 00:28:35;;;;;;;46.70;36.03;;;-0.30;99.90;;;;;;7374657;19;20374;-47
2022/12/16 00:31:02;;;;;;;49.65;38.03;;;-0.20;99.90;;;;;;7374679;19;20116;-50
2022/12/16 00:33:29;;;;;;;47.97;36.88;;;-0.20;99.90;;;;;;7373954;19;20051;-49
2022/12/16 00:35:56;;;;;;;52.33;38.38;;;-0.20;99.90;;;;;;7375439;19;20022;-50
2022/12/16 00:38:24;;;;;;;45.63;35.92;;;-0.20;99.90;;;;;;7370458;19;20522;-48
2022/12/16 00:40:50;;;;;;;45.20;34.92;;;-0.20;99.90;;;;;;7376110;19;20481;-48
2022/12/16 00:43:17;;;;;;;50.15;34.75;;;-0.10;99.90;;;;;;7371616;19;20022;-47
2022/12/16 00:45:45;;;;;;;48.55;36.33;;;-0.20;99.90;;;;;;7375149;19;20565;-51
2022/12/16 00:48:11;;;;;;;52.10;36.60;;;-0.20;99.90;;;;;;7371845;19;20059;-49
2022/12/16 00:50:37;;;;;;;50.50;36.58;;;-0.20;99.90;;;;;;7378112;19;20073;-47
2022/12/16 00:53:04;;;;;;;52.97;37.35;;;-0.20;99.90;;;;;;7374104;19;20007;-48
2022/12/16 00:55:31;;;;;;;50.10;37.70;;;-0.20;99.90;;;;;;7379836;19;20021;-47
2022/12/16 00:57:57;;;;;;;46.42;36.63;;;-0.20;99.90;;;;;;7375751;19;20015;-45
2022/12/16 01:00:24;;;;;;;44.97;35.28;;;-0.20;99.90;;;;;;7377265;19;20453;-46
2022/12/16 01:02:51;;;;;;;50.10;35.80;;;-0.20;99.90;;;;;;7371131;19;20556;-46
2022/12/16 01:05:20;;;;;;;43.63;34.15;;;-0.20;99.90;;;;;;7374299;19;20025;-50
2022/12/16 01:07:47;;;;;;;53.33;38.63;;;-0.20;99.90;;;;;;7377403;19;20018;-50
2022/12/16 01:10:13;;;;;;;51.03;38.58;;;-0.30;99.90;;;;;;7375591;19;20401;-47
2022/12/16 01:12:41;;;;;;;57.97;41.25;;;-0.30;99.90;;;;;;7376747;19;20018;-48
2022/12/16 01:15:11;;;;;;;53.03;39.33;;;-0.30;99.90;;;;;;7376953;19;20018;-44
2022/12/16 01:17:38;;;;;;;49.55;37.28;;;-0.30;99.90;;;;;;7379550;19;20560;-46
2022/12/16 01:20:05;;;;;;;48.72;38.95;;;-0.30;99.90;;;;;;7374452;19;20499;-47
2022/12/16 01:22:32;;;;;;;45.53;37.40;;;-0.30;99.90;;;;;;7374214;19;20010;-45
2022/12/16 01:24:59;;;;;;;46.92;36.67;;;-0.20;99.90;;;;;;7373036;19;20441;-46
2022/12/16 01:27:25;;;;;;;51.15;38.53;;;-0.30;99.90;;;;;;7374327;19;20053;-46
2022/12/16 01:29:52;;;;;;;49.65;39.78;;;-0.20;99.90;;;;;;7373936;19;20494;-45
2022/12/16 01:32:18;;;;;;;51.03;38.00;;;-0.20;99.90;;;;;;7376353;19;20520;-45
2022/12/16 01:34:50;;;;;;;51.20;38.67;;;-0.30;99.90;;;;;;7374431;19;20014;-44
2022/12/16 01:37:16;;;;;;;50.88;38.72;;;-0.20;99.90;;;;;;7376823;19;20034;-45
2022/12/16 01:39:42;;;;;;;54.58;39.22;;;-0.20;99.90;;;;;;7374396;19;20102;-45
2022/12/16 01:42:18;;;;;;;50.15;38.83;;;-0.20;99.90;;;;;;7379229;19;20024;-45
2022/12/16 01:44:47;;;;;;;52.88;38.45;;;-0.20;99.90;;;;;;7373303;19;20019;-47
2022/12/16 01:47:17;;;;;;;49.17;37.22;;;-0.20;99.90;;;;;;7377108;19;20030;-46
2022/12/16 01:49:48;;;;;;;51.55;38.92;;;-0.20;99.90;;;;;;7375427;19;20018;-48
2022/12/16 01:52:22;;;;;;;49.20;38.72;;;-0.20;99.90;;;;;;7378905;19;20516;-45
2022/12/16 01:55:01;;;;;;;47.55;37.10;;;-0.20;99.90;;;;;;7374139;19;20037;-45
2022/12/16 01:57:57;;;;;;;51.97;38.28;;;-0.20;99.90;;;;;;7377324;19;20015;-47
2022/12/16 02:00:24;;;;;;;53.65;39.58;;;-0.20;99.90;;;;;;7377147;19;20022;-45
2022/12/16 02:02:52;;;;;;;50.40;37.08;;;-0.20;99.90;;;;;;7371864;19;20078;-45
2022/12/16 02:05:19;;;;;;;51.35;38.85;;;-0.20;99.90;;;;;;7373324;19;20018;-46
2022/12/16 02:08:09;;;;;;;52.47;38.20;;;-0.20;99.90;;;;;;7372506;19;20730;-44
2022/12/16 02:10:42;;;;;;;48.78;36.30;;;-0.20;99.90;;;;;;7378707;19;20039;-44
2022/12/16 02:13:23;;;;;;;46.53;38.08;;;-0.20;99.90;;;;;;7373982;19;20518;-44
2022/12/16 02:16:01;;;;;;;53.95;36.95;;;-0.20;99.90;;;;;;7376271;19;20029;-45
2022/12/16 02:18:30;;;;;;;48.95;37.42;;;-0.20;99.90;;;;;;7377268;19;20372;-44
2022/12/16 02:21:15;;;;;;;48.67;38.70;;;-0.20;99.90;;;;;;7369969;19;20010;-47
2022/12/16 02:24:07;;;;;;;54.75;38.35;;;-0.20;99.90;;;;;;7367584;19;20106;-47
2022/12/16 02:26:34;;;;;;;;;;;-0.20;99.90;;;;;;7372709;19;20469;-47
2022/12/16 02:29:40;;;;;;;47.55;36.58;;;-0.20;99.90;;;;;;7373216;19;19918;-47
2022/12/16 02:32:24;;;;;;;52.13;37.15;;;-0.10;99.90;;;;;;7373622;19;20014;-46
2022/12/16 02:35:09;;;;;;;53.13;37.75;;;-0.20;99.90;;;;;;7367825;19;20497;-48
2022/12/16 02:38:16;;;;;;;51.15;38.15;;;-0.30;99.90;;;;;;7378795;19;20025;-46
2022/12/16 02:41:01;;;;;;;52.95;38.13;;;-0.30;99.90;;;;;;7374743;19;20006;-46
2022/12/16 02:43:55;;;;;;;52.28;40.80;;;-0.20;99.90;;;;;;7373244;19;20513;-45
2022/12/16 02:46:27;;;;;;;59.92;41.85;;;-0.20;99.90;;;;;;7372069;19;20493;-46
2022/12/16 02:48:55;;;;;;;55.58;39.53;;;-0.30;99.90;;;;;;7377889;19;20014;-48
2022/12/16 02:51:24;;;;;;;49.40;38.42;;;-0.20;99.90;;;;;;7370427;19;20014;-47
2022/12/16 02:53:52;;;;;;;54.40;40.47;;;-0.30;99.90;;;;;;7377117;19;20018;-47
2022/12/16 02:57:03;;;;;;;53.10;40.65;;;-0.30;99.90;;;;;;7367957;19;20030;-49
2022/12/16 02:59:39;;;;;;;55.53;40.13;;;-0.30;99.90;;;;;;7368040;19;20530;-46
2022/12/16 03:02:23;;;;;;;62.25;41.70;;;-0.20;99.90;;;;;;7372697;19;20478;-46
2022/12/16 03:05:18;;;;;;;56.38;40.20;;;-0.20;99.90;;;;;;7367886;19;20018;-48
2022/12/16 03:07:46;;;;;;;57.10;41.85;;;-0.30;99.90;;;;;;7373442;19;20444;-48
2022/12/16 03:10:16;;;;;;;56.58;41.60;;;-0.30;99.90;;;;;;7372997;19;20018;-46
2022/12/16 03:12:45;;;;;;;56.95;42.63;;;-0.30;99.90;;;;;;7371125;19;20010;-47
2022/12/16 03:15:17;;;;;;;54.78;40.33;;;-0.20;99.90;;;;;;7363206;19;20536;-50
2022/12/16 03:17:47;;;;;;;60.63;42.65;;;-0.30;99.90;;;;;;7370534;19;20015;-52
2022/12/16 03:20:42;;;;;;;56.00;42.17;;;-0.20;99.90;;;;;;7369969;19;20025;-49
2022/12/16 03:23:21;;;;;;;54.60;41.40;;;-0.30;99.90;;;;;;7367858;19;20078;-49
2022/12/16 03:25:53;;;;;;;57.33;39.53;;;-0.30;99.90;;;;;;7367414;19;20029;-52
2022/12/16 03:28:34;;;;;;;56.25;41.75;;;-0.30;99.90;;;;;;7381081;19;20468;-51
2022/12/16 03:31:11;;;;;;;58.45;40.95;;;-0.30;99.90;;;;;;7371347;19;20030;-51
2022/12/16 03:33:44;;;;;;;58.03;42.28;;;-0.30;99.90;;;;;;7377241;19;20018;-51
2022/12/16 03:36:19;;;;;;;51.42;39.58;;;-0.20;99.90;;;;;;7373829;19;20378;-47
2022/12/16 03:38:46;;;;;;;57.67;41.05;;;-0.30;99.90;;;;;;7377208;19;20023;-46
2022/12/16 03:41:16;;;;;;;58.55;43.60;;;-0.30;99.90;;;;;;7376141;19;20358;-45
2022/12/16 03:43:42;;;;;;;62.28;42.67;;;-0.20;99.90;;;;;;7381413;19;20037;-50
2022/12/16 03:46:10;;;;;;;57.50;43.20;;;-0.20;99.90;;;;;;7377437;19;20034;-52
2022/12/16 03:48:45;;;;;;;51.58;41.13;;;-0.20;99.90;;;;;;7378626;19;20086;-50
2022/12/16 03:51:11;;;;;;;54.03;41.13;;;-0.20;99.90;;;;;;7377622;19;20045;-45
2022/12/16 03:53:39;;;;;;;54.28;40.90;;;-0.20;99.90;;;;;;7378008;19;20018;-51
2022/12/16 03:56:06;;;;;;;58.35;40.38;;;-0.20;99.90;;;;;;7373335;19;20018;-47
2022/12/16 03:58:40;;;;;;;51.65;39.63;;;-0.20;99.90;;;;;;7375946;19;20018;-48
2022/12/16 04:01:08;;;;;;;52.13;37.35;;;-0.10;99.90;;;;;;7371611;19;20375;-48
2022/12/16 04:03:38;;;;;;;50.17;38.97;;;-0.10;99.90;;;;;;7374493;19;20367;-45
2022/12/16 04:06:05;;;;;;;55.40;40.85;;;-0.10;99.90;;;;;;7372317;19;21160;-44
2022/12/16 04:08:31;;;;;;;52.92;38.78;;;-0.10;99.90;;;;;;7376751;19;20094;-50
2022/12/16 04:25:11;;;;;;;49.03;37.97;;;0.00;99.90;;;;;;7372379;19;20022;-48
2022/12/16 04:27:37;;;;;;;47.72;35.80;;;0.10;99.90;;;;;;7374690;19;20086;-51
2022/12/16 04:30:20;;;;;;;45.15;34.53;;;0.10;99.90;;;;;;7374407;19;20015;-47
